Terminal Aerodrome Forecast
Issued by NWS Charleston, WV

Current Version | Previous Version | Graphics & Text | Print | Product List | Glossary On
Versions: 1 2 3 4 5 6 7 8 9 10 11 12 13 14 15 16 17 18 19 20 21 22 23 24 25 26 27 28
000
FTUS41 KRLX 252100 AAA
TAFEKN
TAF AMD
KEKN 252142Z 2522/2618 VRB05KT 5SM -SHRA BR OVC030
     FM260000 15008KT 5SM -SHRA BR OVC020
     FM260400 02005KT 6SM SHRA BR OVC015
     FM260800 02005KT P6SM OVC025
     FM261400 36005KT P6SM BKN045=

USA.gov is the U.S. government's official web portal to all federal, state and local government web resources and services.